sensor_id;sensor_type;location;lat;lon;timestamp;P1;durP1;ratioP1;P2;durP2;ratioP2
53145;SDS011;39042;53.150;5.898;2024-02-23T00:01:05;1.40;;;0.10;;
53145;SDS011;39042;53.150;5.898;2024-02-23T00:03:32;9.00;;;0.25;;
53145;SDS011;39042;53.150;5.898;2024-02-23T00:06:00;6.82;;;0.35;;
53145;SDS011;39042;53.150;5.898;2024-02-23T00:08:25;6.50;;;0.40;;
53145;SDS011;39042;53.150;5.898;2024-02-23T00:10:51;5.63;;;0.60;;
53145;SDS011;39042;53.150;5.898;2024-02-23T00:13:17;2.83;;;0.53;;
53145;SDS011;39042;53.150;5.898;2024-02-23T00:15:43;6.37;;;0.57;;
53145;SDS011;39042;53.150;5.898;2024-02-23T00:18:09;3.20;;;0.30;;
53145;SDS011;39042;53.150;5.898;2024-02-23T00:20:35;6.20;;;0.33;;
53145;SDS011;39042;53.150;5.898;2024-02-23T00:23:02;10.75;;;1.33;;
53145;SDS011;39042;53.150;5.898;2024-02-23T00:27:54;6.90;;;0.82;;
53145;SDS011;39042;53.150;5.898;2024-02-23T00:30:19;4.97;;;0.40;;
53145;SDS011;39042;53.150;5.898;2024-02-23T00:32:45;5.40;;;0.20;;
53145;SDS011;39042;53.150;5.898;2024-02-23T00:35:11;5.10;;;0.37;;
53145;SDS011;39042;53.150;5.898;2024-02-23T00:37:37;6.10;;;0.50;;
53145;SDS011;39042;53.150;5.898;2024-02-23T00:40:03;4.57;;;0.50;;
53145;SDS011;39042;53.150;5.898;2024-02-23T00:42:30;6.25;;;1.00;;
53145;SDS011;39042;53.150;5.898;2024-02-23T00:44:56;5.60;;;0.73;;
53145;SDS011;39042;53.150;5.898;2024-02-23T00:47:22;5.87;;;0.50;;
53145;SDS011;39042;53.150;5.898;2024-02-23T00:49:48;7.87;;;0.77;;
53145;SDS011;39042;53.150;5.898;2024-02-23T00:52:14;7.47;;;0.90;;
53145;SDS011;39042;53.150;5.898;2024-02-23T00:54:40;10.05;;;1.35;;
53145;SDS011;39042;53.150;5.898;2024-02-23T00:57:05;9.30;;;1.40;;
53145;SDS011;39042;53.150;5.898;2024-02-23T00:59:31;13.87;;;1.37;;
53145;SDS011;39042;53.150;5.898;2024-02-23T01:01:57;13.33;;;1.50;;
53145;SDS011;39042;53.150;5.898;2024-02-23T01:04:23;12.52;;;1.00;;
53145;SDS011;39042;53.150;5.898;2024-02-23T01:06:49;14.20;;;1.27;;
53145;SDS011;39042;53.150;5.898;2024-02-23T01:09:15;10.53;;;1.17;;
53145;SDS011;39042;53.150;5.898;2024-02-23T01:11:46;10.95;;;1.40;;
53145;SDS011;39042;53.150;5.898;2024-02-23T01:14:12;12.57;;;1.65;;
53145;SDS011;39042;53.150;5.898;2024-02-23T01:16:38;14.32;;;1.80;;
53145;SDS011;39042;53.150;5.898;2024-02-23T01:19:04;18.00;;;1.97;;
53145;SDS011;39042;53.150;5.898;2024-02-23T01:21:30;18.80;;;2.07;;
53145;SDS011;39042;53.150;5.898;2024-02-23T01:23:56;17.63;;;1.45;;
53145;SDS011;39042;53.150;5.898;2024-02-23T01:26:23;15.57;;;1.67;;
53145;SDS011;39042;53.150;5.898;2024-02-23T01:28:49;11.00;;;1.40;;
53145;SDS011;39042;53.150;5.898;2024-02-23T01:31:14;10.43;;;1.05;;
53145;SDS011;39042;53.150;5.898;2024-02-23T01:33:40;7.03;;;1.00;;
53145;SDS011;39042;53.150;5.898;2024-02-23T01:36:07;12.20;;;1.23;;
53145;SDS011;39042;53.150;5.898;2024-02-23T01:38:33;10.38;;;1.13;;
53145;SDS011;39042;53.150;5.898;2024-02-23T01:40:59;14.57;;;2.00;;
53145;SDS011;39042;53.150;5.898;2024-02-23T01:43:25;21.15;;;1.63;;
53145;SDS011;39042;53.150;5.898;2024-02-23T01:45:51;13.77;;;1.50;;
53145;SDS011;39042;53.150;5.898;2024-02-23T01:48:18;8.63;;;2.00;;
53145;SDS011;39042;53.150;5.898;2024-02-23T01:50:44;6.90;;;0.70;;
53145;SDS011;39042;53.150;5.898;2024-02-23T01:53:10;11.27;;;1.00;;
53145;SDS011;39042;53.150;5.898;2024-02-23T01:55:40;11.18;;;1.83;;
53145;SDS011;39042;53.150;5.898;2024-02-23T01:58:07;11.52;;;2.08;;
53145;SDS011;39042;53.150;5.898;2024-02-23T02:00:33;6.30;;;0.57;;
53145;SDS011;39042;53.150;5.898;2024-02-23T02:03:01;9.63;;;1.20;;
53145;SDS011;39042;53.150;5.898;2024-02-23T02:05:27;6.72;;;0.77;;
53145;SDS011;39042;53.150;5.898;2024-02-23T02:07:53;7.45;;;1.42;;
53145;SDS011;39042;53.150;5.898;2024-02-23T02:10:24;6.63;;;1.00;;
53145;SDS011;39042;53.150;5.898;2024-02-23T02:12:51;6.38;;;1.55;;
53145;SDS011;39042;53.150;5.898;2024-02-23T02:15:17;12.23;;;1.30;;
53145;SDS011;39042;53.150;5.898;2024-02-23T02:17:43;10.80;;;1.30;;
53145;SDS011;39042;53.150;5.898;2024-02-23T02:20:11;10.10;;;1.07;;
53145;SDS011;39042;53.150;5.898;2024-02-23T02:22:41;8.88;;;1.50;;
53145;SDS011;39042;53.150;5.898;2024-02-23T02:25:06;7.73;;;1.10;;
53145;SDS011;39042;53.150;5.898;2024-02-23T02:27:33;10.65;;;1.08;;
53145;SDS011;39042;53.150;5.898;2024-02-23T02:29:58;10.63;;;1.40;;
53145;SDS011;39042;53.150;5.898;2024-02-23T02:32:24;6.70;;;0.80;;
53145;SDS011;39042;53.150;5.898;2024-02-23T02:34:50;5.37;;;0.77;;
53145;SDS011;39042;53.150;5.898;2024-02-23T02:37:16;6.90;;;1.00;;
53145;SDS011;39042;53.150;5.898;2024-02-23T02:39:41;12.33;;;1.70;;
53145;SDS011;39042;53.150;5.898;2024-02-23T02:42:07;13.40;;;1.90;;
53145;SDS011;39042;53.150;5.898;2024-02-23T02:44:33;5.83;;;0.87;;
53145;SDS011;39042;53.150;5.898;2024-02-23T02:46:59;5.40;;;0.70;;
53145;SDS011;39042;53.150;5.898;2024-02-23T02:49:25;4.57;;;0.60;;
53145;SDS011;39042;53.150;5.898;2024-02-23T02:51:51;5.57;;;0.70;;
53145;SDS011;39042;53.150;5.898;2024-02-23T02:54:17;8.93;;;1.10;;
53145;SDS011;39042;53.150;5.898;2024-02-23T02:56:43;7.22;;;0.93;;
53145;SDS011;39042;53.150;5.898;2024-02-23T02:59:11;4.97;;;0.60;;
53145;SDS011;39042;53.150;5.898;2024-02-23T03:01:38;9.38;;;0.85;;
53145;SDS011;39042;53.150;5.898;2024-02-23T03:04:04;13.20;;;1.00;;
53145;SDS011;39042;53.150;5.898;2024-02-23T03:06:30;9.57;;;0.47;;
53145;SDS011;39042;53.150;5.898;2024-02-23T03:08:55;6.97;;;1.00;;
53145;SDS011;39042;53.150;5.898;2024-02-23T03:11:21;10.53;;;1.00;;
53145;SDS011;39042;53.150;5.898;2024-02-23T03:13:47;5.75;;;0.70;;
53145;SDS011;39042;53.150;5.898;2024-02-23T03:16:16;5.63;;;0.67;;
53145;SDS011;39042;53.150;5.898;2024-02-23T03:18:43;7.03;;;0.70;;
53145;SDS011;39042;53.150;5.898;2024-02-23T03:21:09;6.72;;;1.35;;
53145;SDS011;39042;53.150;5.898;2024-02-23T03:23:35;9.80;;;0.90;;
53145;SDS011;39042;53.150;5.898;2024-02-23T03:26:01;11.40;;;0.85;;
53145;SDS011;39042;53.150;5.898;2024-02-23T03:28:28;7.30;;;0.75;;
53145;SDS011;39042;53.150;5.898;2024-02-23T03:30:54;11.90;;;0.85;;
53145;SDS011;39042;53.150;5.898;2024-02-23T03:33:20;9.97;;;0.70;;
53145;SDS011;39042;53.150;5.898;2024-02-23T03:35:45;5.77;;;0.53;;
53145;SDS011;39042;53.150;5.898;2024-02-23T03:38:11;9.67;;;1.13;;
53145;SDS011;39042;53.150;5.898;2024-02-23T03:40:37;11.67;;;0.80;;
53145;SDS011;39042;53.150;5.898;2024-02-23T03:43:03;7.93;;;0.90;;
53145;SDS011;39042;53.150;5.898;2024-02-23T03:45:29;9.38;;;0.95;;
53145;SDS011;39042;53.150;5.898;2024-02-23T03:47:55;7.57;;;0.70;;
53145;SDS011;39042;53.150;5.898;2024-02-23T03:50:21;16.27;;;1.27;;
53145;SDS011;39042;53.150;5.898;2024-02-23T03:52:47;9.50;;;1.07;;
53145;SDS011;39042;53.150;5.898;2024-02-23T03:55:12;9.30;;;0.73;;
53145;SDS011;39042;53.150;5.898;2024-02-23T03:57:38;7.07;;;0.77;;
53145;SDS011;39042;53.150;5.898;2024-02-23T04:00:04;10.30;;;1.27;;
53145;SDS011;39042;53.150;5.898;2024-02-23T04:02:38;9.48;;;1.17;;
53145;SDS011;39042;53.150;5.898;2024-02-23T04:05:04;11.05;;;0.93;;
53145;SDS011;39042;53.150;5.898;2024-02-23T04:07:30;10.43;;;0.80;;
53145;SDS011;39042;53.150;5.898;2024-02-23T04:09:56;8.47;;;0.80;;
53145;SDS011;39042;53.150;5.898;2024-02-23T04:12:22;8.60;;;0.60;;
53145;SDS011;39042;53.150;5.898;2024-02-23T04:14:48;8.80;;;0.70;;
53145;SDS011;39042;53.150;5.898;2024-02-23T04:17:14;11.80;;;0.67;;
53145;SDS011;39042;53.150;5.898;2024-02-23T04:19:40;8.50;;;0.55;;
53145;SDS011;39042;53.150;5.898;2024-02-23T04:22:07;5.15;;;1.05;;
53145;SDS011;39042;53.150;5.898;2024-02-23T04:24:38;8.90;;;1.02;;
53145;SDS011;39042;53.150;5.898;2024-02-23T04:27:05;8.15;;;0.88;;
53145;SDS011;39042;53.150;5.898;2024-02-23T04:29:31;8.88;;;0.70;;
53145;SDS011;39042;53.150;5.898;2024-02-23T04:31:57;5.60;;;0.55;;
53145;SDS011;39042;53.150;5.898;2024-02-23T04:34:24;5.60;;;0.38;;
53145;SDS011;39042;53.150;5.898;2024-02-23T04:36:50;6.73;;;0.80;;
53145;SDS011;39042;53.150;5.898;2024-02-23T04:39:16;8.47;;;0.50;;
53145;SDS011;39042;53.150;5.898;2024-02-23T04:41:42;9.77;;;0.90;;
53145;SDS011;39042;53.150;5.898;2024-02-23T04:44:08;6.35;;;1.00;;
53145;SDS011;39042;53.150;5.898;2024-02-23T04:46:34;5.73;;;0.33;;
53145;SDS011;39042;53.150;5.898;2024-02-23T04:49:00;5.37;;;0.57;;
53145;SDS011;39042;53.150;5.898;2024-02-23T04:51:27;7.40;;;0.52;;
53145;SDS011;39042;53.150;5.898;2024-02-23T04:53:52;5.47;;;0.60;;
53145;SDS011;39042;53.150;5.898;2024-02-23T04:56:18;13.50;;;1.13;;
53145;SDS011;39042;53.150;5.898;2024-02-23T04:58:44;10.70;;;0.70;;
53145;SDS011;39042;53.150;5.898;2024-02-23T05:01:10;8.27;;;1.23;;
53145;SDS011;39042;53.150;5.898;2024-02-23T05:03:37;11.07;;;0.85;;
53145;SDS011;39042;53.150;5.898;2024-02-23T05:06:03;10.07;;;1.23;;
53145;SDS011;39042;53.150;5.898;2024-02-23T05:10:56;11.63;;;0.80;;
53145;SDS011;39042;53.150;5.898;2024-02-23T05:13:22;8.65;;;1.02;;
53145;SDS011;39042;53.150;5.898;2024-02-23T05:15:48;5.78;;;1.42;;
53145;SDS011;39042;53.150;5.898;2024-02-23T05:18:14;12.23;;;0.60;;
53145;SDS011;39042;53.150;5.898;2024-02-23T05:20:40;9.43;;;0.70;;
53145;SDS011;39042;53.150;5.898;2024-02-23T05:23:06;12.60;;;1.10;;
53145;SDS011;39042;53.150;5.898;2024-02-23T05:25:32;6.85;;;0.68;;
53145;SDS011;39042;53.150;5.898;2024-02-23T05:27:58;6.90;;;0.82;;
53145;SDS011;39042;53.150;5.898;2024-02-23T05:30:24;6.93;;;0.73;;
53145;SDS011;39042;53.150;5.898;2024-02-23T05:32:52;9.65;;;0.85;;
53145;SDS011;39042;53.150;5.898;2024-02-23T05:35:18;7.22;;;0.60;;
53145;SDS011;39042;53.150;5.898;2024-02-23T05:37:44;10.20;;;0.53;;
53145;SDS011;39042;53.150;5.898;2024-02-23T05:40:10;13.47;;;1.40;;
53145;SDS011;39042;53.150;5.898;2024-02-23T05:42:39;13.93;;;1.77;;
53145;SDS011;39042;53.150;5.898;2024-02-23T05:45:06;8.18;;;0.60;;
53145;SDS011;39042;53.150;5.898;2024-02-23T05:47:37;8.77;;;0.90;;
53145;SDS011;39042;53.150;5.898;2024-02-23T05:50:04;16.58;;;1.63;;
53145;SDS011;39042;53.150;5.898;2024-02-23T05:52:31;6.65;;;1.02;;
53145;SDS011;39042;53.150;5.898;2024-02-23T05:54:57;7.10;;;0.75;;
53145;SDS011;39042;53.150;5.898;2024-02-23T05:57:28;8.48;;;0.82;;
53145;SDS011;39042;53.150;5.898;2024-02-23T05:59:54;10.30;;;1.25;;
53145;SDS011;39042;53.150;5.898;2024-02-23T06:02:23;6.97;;;0.95;;
53145;SDS011;39042;53.150;5.898;2024-02-23T06:04:48;13.07;;;1.15;;
53145;SDS011;39042;53.150;5.898;2024-02-23T06:07:14;10.33;;;1.20;;
53145;SDS011;39042;53.150;5.898;2024-02-23T06:09:43;12.35;;;1.52;;
53145;SDS011;39042;53.150;5.898;2024-02-23T06:12:09;14.55;;;2.17;;
53145;SDS011;39042;53.150;5.898;2024-02-23T06:14:35;12.68;;;2.15;;
53145;SDS011;39042;53.150;5.898;2024-02-23T06:17:01;8.13;;;2.72;;
53145;SDS011;39042;53.150;5.898;2024-02-23T06:19:28;13.18;;;2.80;;
53145;SDS011;39042;53.150;5.898;2024-02-23T06:21:54;9.43;;;2.53;;
53145;SDS011;39042;53.150;5.898;2024-02-23T06:24:19;7.83;;;1.80;;
53145;SDS011;39042;53.150;5.898;2024-02-23T06:26:45;10.87;;;3.27;;
53145;SDS011;39042;53.150;5.898;2024-02-23T06:29:14;10.45;;;2.22;;
53145;SDS011;39042;53.150;5.898;2024-02-23T06:31:40;11.37;;;2.73;;
53145;SDS011;39042;53.150;5.898;2024-02-23T06:36:33;6.53;;;2.05;;
53145;SDS011;39042;53.150;5.898;2024-02-23T06:38:58;13.97;;;2.80;;
53145;SDS011;39042;53.150;5.898;2024-02-23T06:41:24;12.90;;;1.93;;
53145;SDS011;39042;53.150;5.898;2024-02-23T06:43:50;12.13;;;2.80;;
53145;SDS011;39042;53.150;5.898;2024-02-23T06:46:18;13.90;;;3.47;;
53145;SDS011;39042;53.150;5.898;2024-02-23T06:48:45;12.52;;;3.35;;
53145;SDS011;39042;53.150;5.898;2024-02-23T06:51:11;10.57;;;3.63;;
53145;SDS011;39042;53.150;5.898;2024-02-23T06:53:37;9.53;;;2.93;;
53145;SDS011;39042;53.150;5.898;2024-02-23T06:56:03;15.83;;;4.23;;
53145;SDS011;39042;53.150;5.898;2024-02-23T06:58:29;16.63;;;5.00;;
53145;SDS011;39042;53.150;5.898;2024-02-23T07:00:55;10.33;;;3.90;;
53145;SDS011;39042;53.150;5.898;2024-02-23T07:03:21;13.83;;;4.13;;
53145;SDS011;39042;53.150;5.898;2024-02-23T07:05:46;12.43;;;4.17;;
53145;SDS011;39042;53.150;5.898;2024-02-23T07:08:15;11.90;;;4.65;;
53145;SDS011;39042;53.150;5.898;2024-02-23T07:10:41;11.30;;;3.67;;
53145;SDS011;39042;53.150;5.898;2024-02-23T07:13:07;13.18;;;4.03;;
53145;SDS011;39042;53.150;5.898;2024-02-23T07:15:33;11.13;;;3.57;;
53145;SDS011;39042;53.150;5.898;2024-02-23T07:18:00;11.98;;;2.50;;
53145;SDS011;39042;53.150;5.898;2024-02-23T07:20:27;9.38;;;3.13;;
53145;SDS011;39042;53.150;5.898;2024-02-23T07:22:52;7.50;;;2.87;;
53145;SDS011;39042;53.150;5.898;2024-02-23T07:25:18;8.13;;;2.67;;
53145;SDS011;39042;53.150;5.898;2024-02-23T07:27:48;9.75;;;3.03;;
53145;SDS011;39042;53.150;5.898;2024-02-23T07:30:14;6.22;;;2.30;;
53145;SDS011;39042;53.150;5.898;2024-02-23T07:32:41;7.80;;;2.10;;
53145;SDS011;39042;53.150;5.898;2024-02-23T07:35:08;6.13;;;1.42;;
53145;SDS011;39042;53.150;5.898;2024-02-23T07:37:34;4.40;;;1.67;;
53145;SDS011;39042;53.150;5.898;2024-02-23T07:40:01;7.47;;;2.05;;
53145;SDS011;39042;53.150;5.898;2024-02-23T07:42:29;9.13;;;2.30;;
53145;SDS011;39042;53.150;5.898;2024-02-23T07:44:55;7.38;;;1.90;;
53145;SDS011;39042;53.150;5.898;2024-02-23T07:47:21;9.95;;;2.40;;
53145;SDS011;39042;53.150;5.898;2024-02-23T07:49:47;6.95;;;2.17;;
53145;SDS011;39042;53.150;5.898;2024-02-23T07:52:13;7.13;;;2.23;;
53145;SDS011;39042;53.150;5.898;2024-02-23T07:54:39;11.10;;;2.23;;
53145;SDS011;39042;53.150;5.898;2024-02-23T07:57:04;3.80;;;1.87;;
53145;SDS011;39042;53.150;5.898;2024-02-23T07:59:30;3.97;;;2.27;;
53145;SDS011;39042;53.150;5.898;2024-02-23T08:01:56;10.27;;;2.70;;
53145;SDS011;39042;53.150;5.898;2024-02-23T08:04:22;8.48;;;3.35;;
53145;SDS011;39042;53.150;5.898;2024-02-23T08:06:48;11.07;;;3.75;;
53145;SDS011;39042;53.150;5.898;2024-02-23T08:09:14;11.77;;;2.80;;
53145;SDS011;39042;53.150;5.898;2024-02-23T08:11:40;9.70;;;3.80;;
53145;SDS011;39042;53.150;5.898;2024-02-23T08:14:06;11.73;;;4.10;;
53145;SDS011;39042;53.150;5.898;2024-02-23T08:16:32;10.40;;;4.13;;
53145;SDS011;39042;53.150;5.898;2024-02-23T08:18:58;11.77;;;5.43;;
53145;SDS011;39042;53.150;5.898;2024-02-23T08:21:24;10.30;;;4.50;;
53145;SDS011;39042;53.150;5.898;2024-02-23T08:23:51;9.65;;;4.40;;
53145;SDS011;39042;53.150;5.898;2024-02-23T08:26:17;8.52;;;3.33;;
53145;SDS011;39042;53.150;5.898;2024-02-23T08:28:43;8.73;;;5.33;;
53145;SDS011;39042;53.150;5.898;2024-02-23T08:31:09;7.27;;;3.97;;
53145;SDS011;39042;53.150;5.898;2024-02-23T08:33:35;8.77;;;4.47;;
53145;SDS011;39042;53.150;5.898;2024-02-23T08:36:01;9.00;;;4.13;;
53145;SDS011;39042;53.150;5.898;2024-02-23T08:38:31;7.95;;;3.85;;
53145;SDS011;39042;53.150;5.898;2024-02-23T08:40:58;10.85;;;3.22;;
53145;SDS011;39042;53.150;5.898;2024-02-23T08:43:24;7.55;;;3.75;;
53145;SDS011;39042;53.150;5.898;2024-02-23T08:45:50;6.43;;;3.20;;
53145;SDS011;39042;53.150;5.898;2024-02-23T08:48:16;8.43;;;3.08;;
53145;SDS011;39042;53.150;5.898;2024-02-23T08:53:09;7.85;;;2.47;;
53145;SDS011;39042;53.150;5.898;2024-02-23T08:55:34;7.90;;;3.42;;
53145;SDS011;39042;53.150;5.898;2024-02-23T08:58:00;9.57;;;2.23;;
53145;SDS011;39042;53.150;5.898;2024-02-23T09:00:26;5.83;;;2.17;;
53145;SDS011;39042;53.150;5.898;2024-02-23T09:02:52;4.53;;;1.83;;
53145;SDS011;39042;53.150;5.898;2024-02-23T09:05:18;5.47;;;2.40;;
53145;SDS011;39042;53.150;5.898;2024-02-23T09:07:44;5.28;;;1.90;;
53145;SDS011;39042;53.150;5.898;2024-02-23T09:10:10;8.93;;;1.63;;
53145;SDS011;39042;53.150;5.898;2024-02-23T09:12:37;3.85;;;1.67;;
53145;SDS011;39042;53.150;5.898;2024-02-23T09:15:04;6.70;;;1.55;;
53145;SDS011;39042;53.150;5.898;2024-02-23T09:19:56;5.18;;;0.82;;
53145;SDS011;39042;53.150;5.898;2024-02-23T09:22:22;6.20;;;1.70;;
53145;SDS011;39042;53.150;5.898;2024-02-23T09:24:48;5.68;;;1.35;;
53145;SDS011;39042;53.150;5.898;2024-02-23T09:27:14;7.20;;;1.23;;
53145;SDS011;39042;53.150;5.898;2024-02-23T09:29:40;5.22;;;0.90;;
53145;SDS011;39042;53.150;5.898;2024-02-23T09:32:09;6.82;;;0.93;;
53145;SDS011;39042;53.150;5.898;2024-02-23T09:34:35;6.97;;;0.80;;
53145;SDS011;39042;53.150;5.898;2024-02-23T09:37:04;6.83;;;0.93;;
53145;SDS011;39042;53.150;5.898;2024-02-23T09:39:32;9.00;;;1.70;;
53145;SDS011;39042;53.150;5.898;2024-02-23T09:42:35;6.85;;;1.30;;
53145;SDS011;39042;53.150;5.898;2024-02-23T09:45:42;4.55;;;0.77;;
53145;SDS011;39042;53.150;5.898;2024-02-23T09:48:09;3.95;;;0.65;;
53145;SDS011;39042;53.150;5.898;2024-02-23T09:50:37;6.95;;;0.98;;
53145;SDS011;39042;53.150;5.898;2024-02-23T09:53:06;10.23;;;0.90;;
53145;SDS011;39042;53.150;5.898;2024-02-23T09:55:36;3.58;;;0.98;;
53145;SDS011;39042;53.150;5.898;2024-02-23T09:58:02;8.63;;;1.00;;
53145;SDS011;39042;53.150;5.898;2024-02-23T10:00:30;5.93;;;1.15;;
53145;SDS011;39042;53.150;5.898;2024-02-23T10:02:56;5.85;;;0.98;;
53145;SDS011;39042;53.150;5.898;2024-02-23T10:05:25;10.00;;;1.48;;
53145;SDS011;39042;53.150;5.898;2024-02-23T10:07:56;4.25;;;1.23;;
53145;SDS011;39042;53.150;5.898;2024-02-23T10:10:33;8.52;;;1.42;;
53145;SDS011;39042;53.150;5.898;2024-02-23T10:13:00;5.43;;;0.90;;
53145;SDS011;39042;53.150;5.898;2024-02-23T10:15:30;3.85;;;1.27;;
53145;SDS011;39042;53.150;5.898;2024-02-23T10:17:59;3.50;;;0.85;;
53145;SDS011;39042;53.150;5.898;2024-02-23T10:20:25;5.57;;;0.93;;
53145;SDS011;39042;53.150;5.898;2024-02-23T10:22:51;5.63;;;1.35;;
53145;SDS011;39042;53.150;5.898;2024-02-23T10:25:19;6.90;;;1.40;;
53145;SDS011;39042;53.150;5.898;2024-02-23T10:27:46;7.03;;;1.17;;
53145;SDS011;39042;53.150;5.898;2024-02-23T10:30:12;6.28;;;1.55;;
53145;SDS011;39042;53.150;5.898;2024-02-23T10:32:40;6.28;;;1.60;;
53145;SDS011;39042;53.150;5.898;2024-02-23T10:37:40;10.63;;;2.50;;
53145;SDS011;39042;53.150;5.898;2024-02-23T10:40:11;4.88;;;0.88;;
53145;SDS011;39042;53.150;5.898;2024-02-23T10:42:38;7.97;;;1.25;;
53145;SDS011;39042;53.150;5.898;2024-02-23T10:47:39;6.25;;;1.08;;
53145;SDS011;39042;53.150;5.898;2024-02-23T10:50:05;4.37;;;1.10;;
53145;SDS011;39042;53.150;5.898;2024-02-23T10:52:32;4.30;;;1.00;;
53145;SDS011;39042;53.150;5.898;2024-02-23T10:55:00;4.93;;;2.00;;
53145;SDS011;39042;53.150;5.898;2024-02-23T10:57:30;5.72;;;0.98;;
53145;SDS011;39042;53.150;5.898;2024-02-23T10:59:57;3.47;;;1.27;;
53145;SDS011;39042;53.150;5.898;2024-02-23T11:02:24;5.65;;;1.20;;
53145;SDS011;39042;53.150;5.898;2024-02-23T11:04:54;7.95;;;1.58;;
53145;SDS011;39042;53.150;5.898;2024-02-23T11:07:22;4.75;;;1.33;;
53145;SDS011;39042;53.150;5.898;2024-02-23T11:10:00;8.65;;;3.65;;
53145;SDS011;39042;53.150;5.898;2024-02-23T11:12:28;7.15;;;1.25;;
53145;SDS011;39042;53.150;5.898;2024-02-23T11:14:58;3.40;;;0.73;;
53145;SDS011;39042;53.150;5.898;2024-02-23T11:17:32;5.75;;;1.67;;
53145;SDS011;39042;53.150;5.898;2024-02-23T11:20:03;5.53;;;1.20;;
53145;SDS011;39042;53.150;5.898;2024-02-23T11:22:33;4.88;;;1.00;;
53145;SDS011;39042;53.150;5.898;2024-02-23T11:25:00;8.50;;;1.27;;
53145;SDS011;39042;53.150;5.898;2024-02-23T11:27:36;7.25;;;2.03;;
53145;SDS011;39042;53.150;5.898;2024-02-23T11:30:06;5.78;;;2.70;;
53145;SDS011;39042;53.150;5.898;2024-02-23T11:32:46;8.57;;;4.10;;
53145;SDS011;39042;53.150;5.898;2024-02-23T11:35:16;8.38;;;1.90;;
53145;SDS011;39042;53.150;5.898;2024-02-23T11:40:17;3.77;;;0.80;;
53145;SDS011;39042;53.150;5.898;2024-02-23T11:42:43;6.78;;;1.42;;
53145;SDS011;39042;53.150;5.898;2024-02-23T11:45:09;4.47;;;0.87;;
53145;SDS011;39042;53.150;5.898;2024-02-23T11:47:39;3.20;;;0.70;;
53145;SDS011;39042;53.150;5.898;2024-02-23T11:50:07;3.53;;;0.70;;
53145;SDS011;39042;53.150;5.898;2024-02-23T11:52:34;6.47;;;0.93;;
53145;SDS011;39042;53.150;5.898;2024-02-23T11:55:01;4.00;;;0.80;;
53145;SDS011;39042;53.150;5.898;2024-02-23T11:57:27;5.35;;;0.93;;
53145;SDS011;39042;53.150;5.898;2024-02-23T11:59:54;3.17;;;0.63;;
53145;SDS011;39042;53.150;5.898;2024-02-23T12:02:19;2.90;;;0.60;;
53145;SDS011;39042;53.150;5.898;2024-02-23T12:04:46;5.88;;;0.80;;
53145;SDS011;39042;53.150;5.898;2024-02-23T12:07:11;6.03;;;0.70;;
53145;SDS011;39042;53.150;5.898;2024-02-23T12:09:37;3.80;;;0.50;;
53145;SDS011;39042;53.150;5.898;2024-02-23T12:12:06;8.25;;;1.05;;
53145;SDS011;39042;53.150;5.898;2024-02-23T12:14:34;7.85;;;1.05;;
53145;SDS011;39042;53.150;5.898;2024-02-23T12:17:02;2.85;;;0.70;;
53145;SDS011;39042;53.150;5.898;2024-02-23T12:19:29;4.40;;;0.77;;
53145;SDS011;39042;53.150;5.898;2024-02-23T12:21:59;7.07;;;1.17;;
53145;SDS011;39042;53.150;5.898;2024-02-23T12:24:26;3.78;;;0.68;;
53145;SDS011;39042;53.150;5.898;2024-02-23T12:26:56;5.72;;;0.82;;
53145;SDS011;39042;53.150;5.898;2024-02-23T12:29:22;5.07;;;1.00;;
53145;SDS011;39042;53.150;5.898;2024-02-23T12:31:48;5.60;;;0.70;;
53145;SDS011;39042;53.150;5.898;2024-02-23T12:34:14;4.35;;;0.90;;
53145;SDS011;39042;53.150;5.898;2024-02-23T12:36:41;8.25;;;1.80;;
53145;SDS011;39042;53.150;5.898;2024-02-23T12:41:33;6.70;;;1.10;;
53145;SDS011;39042;53.150;5.898;2024-02-23T12:43:59;4.67;;;0.80;;
53145;SDS011;39042;53.150;5.898;2024-02-23T12:46:25;1.87;;;0.60;;
53145;SDS011;39042;53.150;5.898;2024-02-23T12:48:51;4.40;;;0.97;;
53145;SDS011;39042;53.150;5.898;2024-02-23T12:51:17;7.00;;;0.80;;
53145;SDS011;39042;53.150;5.898;2024-02-23T12:53:43;7.88;;;0.98;;
53145;SDS011;39042;53.150;5.898;2024-02-23T12:56:10;2.47;;;0.50;;
53145;SDS011;39042;53.150;5.898;2024-02-23T12:58:40;5.18;;;0.52;;
53145;SDS011;39042;53.150;5.898;2024-02-23T13:01:06;7.10;;;1.15;;
53145;SDS011;39042;53.150;5.898;2024-02-23T13:03:33;8.27;;;0.70;;
53145;SDS011;39042;53.150;5.898;2024-02-23T13:06:00;3.78;;;0.45;;
53145;SDS011;39042;53.150;5.898;2024-02-23T13:08:26;3.88;;;0.40;;
53145;SDS011;39042;53.150;5.898;2024-02-23T13:10:53;4.07;;;1.00;;
53145;SDS011;39042;53.150;5.898;2024-02-23T13:15:46;8.10;;;1.20;;
53145;SDS011;39042;53.150;5.898;2024-02-23T13:18:12;5.63;;;0.70;;
53145;SDS011;39042;53.150;5.898;2024-02-23T13:20:39;4.75;;;1.25;;
53145;SDS011;39042;53.150;5.898;2024-02-23T13:23:09;5.82;;;0.57;;
53145;SDS011;39042;53.150;5.898;2024-02-23T13:25:37;7.68;;;1.00;;
53145;SDS011;39042;53.150;5.898;2024-02-23T13:30:32;6.45;;;0.50;;
53145;SDS011;39042;53.150;5.898;2024-02-23T13:32:58;1.95;;;0.20;;
53145;SDS011;39042;53.150;5.898;2024-02-23T13:37:51;3.95;;;0.40;;
53145;SDS011;39042;53.150;5.898;2024-02-23T13:40:17;5.90;;;0.50;;
53145;SDS011;39042;53.150;5.898;2024-02-23T13:42:43;4.20;;;0.40;;
53145;SDS011;39042;53.150;5.898;2024-02-23T13:45:15;4.25;;;0.20;;
53145;SDS011;39042;53.150;5.898;2024-02-23T13:50:09;2.95;;;0.15;;
53145;SDS011;39042;53.150;5.898;2024-02-23T13:52:36;4.80;;;0.20;;
53145;SDS011;39042;53.150;5.898;2024-02-23T13:55:02;3.95;;;0.47;;
53145;SDS011;39042;53.150;5.898;2024-02-23T13:57:28;3.40;;;0.20;;
53145;SDS011;39042;53.150;5.898;2024-02-23T13:59:54;3.97;;;0.30;;
53145;SDS011;39042;53.150;5.898;2024-02-23T14:02:26;2.50;;;0.40;;
53145;SDS011;39042;53.150;5.898;2024-02-23T14:04:59;2.72;;;0.88;;
53145;SDS011;39042;53.150;5.898;2024-02-23T14:07:32;4.13;;;0.20;;
53145;SDS011;39042;53.150;5.898;2024-02-23T14:09:58;4.55;;;0.35;;
53145;SDS011;39042;53.150;5.898;2024-02-23T14:12:24;3.75;;;0.20;;
53145;SDS011;39042;53.150;5.898;2024-02-23T14:14:50;7.63;;;0.50;;
53145;SDS011;39042;53.150;5.898;2024-02-23T14:17:16;2.60;;;0.50;;
53145;SDS011;39042;53.150;5.898;2024-02-23T14:19:42;6.32;;;0.52;;
53145;SDS011;39042;53.150;5.898;2024-02-23T14:22:08;8.57;;;0.90;;
53145;SDS011;39042;53.150;5.898;2024-02-23T14:24:34;8.10;;;0.63;;
53145;SDS011;39042;53.150;5.898;2024-02-23T14:27:00;4.93;;;0.50;;
53145;SDS011;39042;53.150;5.898;2024-02-23T14:29:26;8.30;;;0.60;;
53145;SDS011;39042;53.150;5.898;2024-02-23T14:31:52;8.18;;;0.70;;
53145;SDS011;39042;53.150;5.898;2024-02-23T14:34:18;3.45;;;0.40;;
53145;SDS011;39042;53.150;5.898;2024-02-23T14:36:45;11.05;;;0.88;;
53145;SDS011;39042;53.150;5.898;2024-02-23T14:39:11;7.03;;;0.97;;
53145;SDS011;39042;53.150;5.898;2024-02-23T14:41:38;7.40;;;0.80;;
53145;SDS011;39042;53.150;5.898;2024-02-23T14:44:04;5.82;;;0.60;;
53145;SDS011;39042;53.150;5.898;2024-02-23T14:46:30;6.40;;;1.10;;
53145;SDS011;39042;53.150;5.898;2024-02-23T14:48:56;6.40;;;0.90;;
53145;SDS011;39042;53.150;5.898;2024-02-23T14:51:22;2.87;;;0.40;;
53145;SDS011;39042;53.150;5.898;2024-02-23T14:53:48;6.22;;;0.60;;
53145;SDS011;39042;53.150;5.898;2024-02-23T14:56:14;12.13;;;1.00;;
53145;SDS011;39042;53.150;5.898;2024-02-23T14:58:39;8.13;;;0.50;;
53145;SDS011;39042;53.150;5.898;2024-02-23T15:01:06;5.47;;;0.30;;
53145;SDS011;39042;53.150;5.898;2024-02-23T15:05:58;1.83;;;0.20;;
53145;SDS011;39042;53.150;5.898;2024-02-23T15:08:26;2.08;;;0.40;;
53145;SDS011;39042;53.150;5.898;2024-02-23T15:10:52;3.92;;;0.35;;
53145;SDS011;39042;53.150;5.898;2024-02-23T15:13:19;3.60;;;0.40;;
53145;SDS011;39042;53.150;5.898;2024-02-23T15:15:45;3.22;;;0.43;;